Time;durP1;ratioP1;P1;durP2;ratioP2;P2;SDS_P1;SDS_P2;PMS_P1;PMS_P2;Temp;Humidity;BMP_temperature;BMP_pressure;BME280_temperature;BME280_humidity;BME280_pressure;Samples;Min_cycle;Max_cycle;Signal;HPM_P1;HPM_P2
2023/01/27 00:01:10;;;;;;;13.97;7.90;;;5.50;96.20;;;;;;5084823;28;20197;-75
2023/01/27 00:03:39;;;;;;;15.93;8.03;;;5.50;96.20;;;;;;5068365;28;20279;-73
2023/01/27 00:06:10;;;;;;;19.70;9.13;;;5.40;96.20;;;;;;5064310;28;20206;-74
2023/01/27 00:08:39;;;;;;;19.23;9.43;;;5.40;96.30;;;;;;5065128;28;20207;-75
2023/01/27 00:13:55;;;;;;;19.53;9.23;;;5.30;96.50;;;;;;5071094;28;20194;-74
2023/01/27 00:16:23;;;;;;;17.77;8.57;;;5.30;96.40;;;;;;5072607;28;20716;-74
2023/01/27 00:18:51;;;;;;;16.37;8.60;;;5.30;96.50;;;;;;5067628;28;20192;-74
2023/01/27 00:26:51;;;;;;;18.10;8.27;;;5.20;96.60;;;;;;5070840;28;20190;-75
2023/01/27 00:29:21;;;;;;;17.43;9.27;;;5.20;96.60;;;;;;5078031;28;20288;-73
2023/01/27 00:34:35;;;;;;;21.23;8.83;;;5.20;96.80;;;;;;5067121;28;20222;-74
2023/01/27 00:37:03;;;;;;;18.83;8.03;;;5.10;96.80;;;;;;5069840;28;20598;-74
2023/01/27 00:39:32;;;;;;;17.80;8.37;;;5.20;96.70;;;;;;5071314;28;20196;-74
2023/01/27 00:42:00;;;;;;;16.23;7.50;;;5.20;96.80;;;;;;5065604;28;20188;-74
2023/01/27 00:44:30;;;;;;;16.10;8.50;;;5.20;96.70;;;;;;5071743;28;20191;-73
2023/01/27 00:46:58;;;;;;;14.27;6.93;;;5.20;96.70;;;;;;5069195;28;20186;-74
2023/01/27 00:49:26;;;;;;;15.53;8.03;;;5.20;96.60;;;;;;5071812;28;20699;-74
2023/01/27 00:51:55;;;;;;;16.13;7.77;;;5.20;96.60;;;;;;5077320;28;20578;-74
2023/01/27 00:54:23;;;;;;;15.13;6.63;;;5.10;96.60;;;;;;5068856;28;20207;-73
2023/01/27 00:56:51;;;;;;;18.00;8.13;;;5.10;96.70;;;;;;5067860;28;20183;-73
2023/01/27 00:59:22;;;;;;;16.70;7.03;;;5.10;96.80;;;;;;5078362;28;20244;-74
2023/01/27 01:01:52;;;;;;;16.77;7.00;;;5.10;96.80;;;;;;5079269;28;20190;-74
2023/01/27 01:04:20;;;;;;;15.50;7.40;;;5.10;96.80;;;;;;5070935;28;20273;-72
2023/01/27 01:06:48;;;;;;;13.77;6.80;;;5.10;96.80;;;;;;5072048;28;20240;-73
2023/01/27 01:09:17;;;;;;;13.03;6.57;;;5.10;96.80;;;;;;5074327;28;20218;-73
2023/01/27 01:11:45;;;;;;;17.43;8.03;;;5.00;96.80;;;;;;5075556;28;20210;-73
2023/01/27 01:14:13;;;;;;;14.03;6.93;;;5.10;97.20;;;;;;5070156;28;20244;-72
2023/01/27 01:16:42;;;;;;;15.83;8.03;;;5.00;96.90;;;;;;5068874;28;20190;-74
2023/01/27 01:19:11;;;;;;;17.97;8.67;;;5.00;97.00;;;;;;5075408;28;20194;-73
2023/01/27 01:21:40;;;;;;;14.57;7.03;;;5.00;97.00;;;;;;5068700;28;20195;-73
2023/01/27 01:24:08;;;;;;;14.63;7.70;;;4.90;97.10;;;;;;5068850;28;20194;-77
2023/01/27 01:26:37;;;;;;;13.17;6.57;;;4.90;97.10;;;;;;5075342;28;20278;-73
2023/01/27 01:29:05;;;;;;;14.43;7.00;;;4.90;97.20;;;;;;5078451;28;20233;-75
2023/01/27 01:31:33;;;;;;;12.93;6.67;;;4.90;97.10;;;;;;5077726;28;20234;-74
2023/01/27 01:34:02;;;;;;;15.10;7.10;;;4.90;97.20;;;;;;5068795;28;20214;-75
2023/01/27 01:36:31;;;;;;;12.40;6.50;;;4.80;97.10;;;;;;5073349;28;20680;-73
2023/01/27 01:39:00;;;;;;;15.83;7.23;;;4.80;97.20;;;;;;5071488;28;20209;-73
2023/01/27 01:41:28;;;;;;;15.13;7.53;;;4.90;97.30;;;;;;5068487;28;20339;-73
2023/01/27 01:43:57;;;;;;;13.13;6.63;;;4.80;97.40;;;;;;5073212;28;20284;-73
2023/01/27 01:46:25;;;;;;;17.77;7.47;;;4.80;97.60;;;;;;5070768;28;20344;-73
2023/01/27 01:48:55;;;;;;;13.73;6.70;;;4.80;97.60;;;;;;5065848;28;20203;-73
2023/01/27 01:51:29;;;;;;;11.20;6.20;;;4.70;97.70;;;;;;5069600;28;20264;-75
2023/01/27 01:54:03;;;;;;;12.67;6.40;;;4.80;97.70;;;;;;5072438;28;20191;-74
2023/01/27 01:56:36;;;;;;;17.50;7.40;;;4.80;97.70;;;;;;5070255;28;20190;-73
2023/01/27 01:59:09;;;;;;;14.57;7.00;;;4.80;97.80;;;;;;5073351;28;20190;-73
2023/01/27 02:01:38;;;;;;;16.53;7.80;;;4.80;97.80;;;;;;5068960;28;20260;-74
2023/01/27 02:04:14;;;;;;;14.33;6.63;;;4.80;97.70;;;;;;5072311;28;20276;-73
2023/01/27 02:06:50;;;;;;;17.20;7.83;;;4.80;97.60;;;;;;5070706;28;20195;-73
2023/01/27 02:09:22;;;;;;;14.73;7.00;;;4.80;97.60;;;;;;5080615;28;20193;-75
2023/01/27 02:11:51;;;;;;;13.90;6.97;;;4.90;97.50;;;;;;5078771;28;20222;-75
2023/01/27 02:14:20;;;;;;;14.60;7.07;;;4.80;97.70;;;;;;5076443;28;20198;-72
2023/01/27 02:16:48;;;;;;;14.17;6.80;;;4.80;97.70;;;;;;5068877;28;20198;-74
2023/01/27 02:19:24;;;;;;;17.17;8.23;;;4.80;97.70;;;;;;5073762;28;20433;-74
2023/01/27 02:21:56;;;;;;;16.53;7.47;;;4.80;97.80;;;;;;5068781;28;20221;-73
2023/01/27 02:24:34;;;;;;;18.83;7.43;;;4.90;97.80;;;;;;5068309;28;21292;-73
2023/01/27 02:27:04;;;;;;;14.97;7.07;;;4.90;97.60;;;;;;5064744;28;20215;-73
2023/01/27 02:29:32;;;;;;;17.30;7.67;;;4.90;97.60;;;;;;5063835;28;20202;-73
2023/01/27 02:32:00;;;;;;;14.13;7.27;;;4.90;97.60;;;;;;5072609;28;20186;-73
2023/01/27 02:34:33;;;;;;;13.47;5.77;;;4.80;97.50;;;;;;5073464;28;20613;-74
2023/01/27 02:37:09;;;;;;;13.50;6.10;;;4.90;97.50;;;;;;5068176;28;20259;-74
2023/01/27 02:39:40;;;;;;;14.67;7.03;;;4.80;97.40;;;;;;5073795;28;20708;-73
2023/01/27 02:42:12;;;;;;;13.43;7.10;;;4.90;97.40;;;;;;5073664;28;20531;-74
2023/01/27 02:44:40;;;;;;;12.67;6.07;;;4.80;97.50;;;;;;5061819;28;20187;-74
2023/01/27 02:47:09;;;;;;;10.57;5.70;;;4.80;97.50;;;;;;5072388;28;20195;-74
2023/01/27 02:49:37;;;;;;;13.57;5.67;;;4.80;97.40;;;;;;5078253;28;20256;-74
2023/01/27 02:52:06;;;;;;;13.37;5.73;;;4.80;97.50;;;;;;5071108;28;20191;-73
2023/01/27 02:54:34;;;;;;;14.27;6.75;;;4.80;97.40;;;;;;5067753;28;20440;-75
2023/01/27 02:57:02;;;;;;;13.03;6.50;;;4.80;97.60;;;;;;5068569;28;20237;-73
2023/01/27 02:59:32;;;;;;;11.77;5.30;;;4.80;97.60;;;;;;5070501;28;20702;-73
2023/01/27 03:02:00;;;;;;;11.73;5.63;;;4.80;97.60;;;;;;5070686;28;20199;-76
2023/01/27 03:04:29;;;;;;;11.73;5.57;;;4.70;97.50;;;;;;5072993;28;20432;-74
2023/01/27 03:06:57;;;;;;;10.77;5.30;;;4.70;97.60;;;;;;5064117;28;21529;-74
2023/01/27 03:09:25;;;;;;;12.47;5.73;;;4.70;97.60;;;;;;5070403;28;20198;-74
2023/01/27 03:20:18;;;;;;;10.07;5.43;;;4.80;97.60;;;;;;5073334;28;20297;-74
2023/01/27 03:22:46;;;;;;;10.20;5.50;;;4.70;97.60;;;;;;5076499;28;20708;-74
2023/01/27 03:25:18;;;;;;;11.57;5.73;;;4.80;97.70;;;;;;5071921;28;21404;-75
2023/01/27 03:27:46;;;;;;;9.50;5.00;;;4.80;97.60;;;;;;5072239;28;20191;-75
2023/01/27 03:30:16;;;;;;;10.03;5.20;;;4.70;97.60;;;;;;5070537;28;20559;-74
2023/01/27 03:32:46;;;;;;;11.10;5.50;;;4.70;97.70;;;;;;5070171;28;20194;-76
2023/01/27 03:35:15;;;;;;;9.90;5.03;;;4.70;97.80;;;;;;5070815;28;20631;-75
2023/01/27 03:46:18;;;;;;;12.90;5.40;;;4.60;97.70;;;;;;5069859;28;20202;-74
2023/01/27 03:48:50;;;;;;;13.17;5.83;;;4.60;97.70;;;;;;5061463;28;20191;-73
2023/01/27 03:51:19;;;;;;;11.33;5.80;;;4.60;97.70;;;;;;5060752;28;20206;-74
2023/01/27 03:53:48;;;;;;;11.77;5.83;;;4.60;97.90;;;;;;5061075;28;20191;-74
2023/01/27 03:56:18;;;;;;;12.40;5.77;;;4.50;97.80;;;;;;5059735;28;20209;-76
2023/01/27 03:58:48;;;;;;;11.50;5.97;;;4.50;97.90;;;;;;5058360;28;20187;-77
2023/01/27 04:01:20;;;;;;;12.30;5.53;;;4.50;97.90;;;;;;5062012;28;20222;-75
2023/01/27 04:06:57;;;;;;;14.03;6.13;;;4.50;98.10;;;;;;5060342;28;21471;-73
2023/01/27 04:09:29;;;;;;;12.00;5.97;;;4.60;97.90;;;;;;5061560;28;20188;-74
2023/01/27 04:11:58;;;;;;;11.67;5.60;;;4.60;97.80;;;;;;5060009;28;20291;-74
2023/01/27 04:14:29;;;;;;;13.20;6.70;;;4.60;97.80;;;;;;5058429;28;20208;-77
2023/01/27 04:17:02;;;;;;;10.37;5.73;;;4.50;97.80;;;;;;5065175;28;20197;-74
2023/01/27 04:19:31;;;;;;;10.90;5.60;;;4.50;97.90;;;;;;5060716;28;20239;-74
2023/01/27 04:22:00;;;;;;;11.50;5.23;;;4.50;97.90;;;;;;5071363;28;20191;-74
2023/01/27 04:24:29;;;;;;;10.43;5.53;;;4.50;97.90;;;;;;5070282;28;20274;-75
2023/01/27 04:27:00;;;;;;;12.47;6.20;;;4.50;98.10;;;;;;5068185;28;20232;-75
2023/01/27 04:29:31;;;;;;;12.87;6.13;;;4.50;98.00;;;;;;5065983;28;20190;-74
2023/01/27 04:32:02;;;;;;;11.27;6.30;;;4.50;98.10;;;;;;5067168;28;20261;-73
2023/01/27 04:34:30;;;;;;;12.17;5.90;;;4.50;98.10;;;;;;5059331;28;20201;-75
2023/01/27 04:36:59;;;;;;;13.63;6.80;;;4.50;98.00;;;;;;5071321;28;20198;-75
2023/01/27 04:39:28;;;;;;;14.70;6.43;;;4.50;97.90;;;;;;5071465;28;20251;-75
2023/01/27 04:41:56;;;;;;;11.20;6.23;;;4.50;97.90;;;;;;5075821;28;20199;-75
2023/01/27 04:44:25;;;;;;;13.67;6.70;;;4.50;97.90;;;;;;5077287;28;20194;-75
2023/01/27 04:46:54;;;;;;;13.77;7.45;;;4.50;97.90;;;;;;5073396;28;20800;-74
2023/01/27 04:49:25;;;;;;;13.67;7.20;;;4.50;98.00;;;;;;5074712;28;20667;-74
2023/01/27 04:51:54;;;;;;;12.87;6.80;;;4.50;98.20;;;;;;5068403;28;20571;-74
2023/01/27 04:54:22;;;;;;;16.93;7.03;;;4.50;98.10;;;;;;5059393;28;20194;-75
2023/01/27 04:56:57;;;;;;;14.33;7.33;;;4.50;98.00;;;;;;5062038;28;20190;-75
2023/01/27 04:59:25;;;;;;;13.20;7.00;;;4.50;97.90;;;;;;5062162;28;20202;-75
2023/01/27 05:01:54;;;;;;;14.67;7.23;;;4.60;97.90;;;;;;5061280;28;20198;-75
2023/01/27 05:04:25;;;;;;;14.87;7.57;;;4.60;97.80;;;;;;5068815;28;20191;-75
2023/01/27 05:06:54;;;;;;;14.37;6.87;;;4.60;97.80;;;;;;5070748;28;20647;-75
2023/01/27 05:09:22;;;;;;;12.93;6.67;;;4.50;97.60;;;;;;5073586;28;20244;-77
2023/01/27 05:11:50;;;;;;;14.15;7.65;;;4.50;97.60;;;;;;5072610;28;20499;-74
2023/01/27 05:14:22;;;;;;;14.30;6.83;;;4.50;97.80;;;;;;5079796;28;20181;-74
2023/01/27 05:16:50;;;;;;;13.23;6.40;;;4.50;97.80;;;;;;5066881;28;20190;-75
2023/01/27 05:19:19;;;;;;;14.83;7.00;;;4.40;97.90;;;;;;5068252;28;20233;-75
2023/01/27 05:21:48;;;;;;;12.50;6.53;;;4.40;97.70;;;;;;5070901;28;20194;-74
2023/01/27 05:24:17;;;;;;;13.77;7.17;;;4.40;97.80;;;;;;5065510;28;20229;-75
2023/01/27 05:26:45;;;;;;;15.33;6.50;;;4.40;97.60;;;;;;5078643;28;20195;-75
2023/01/27 05:29:13;;;;;;;16.47;7.00;;;4.40;97.80;;;;;;5081503;28;20236;-77
2023/01/27 05:31:42;;;;;;;18.67;7.27;;;4.40;97.70;;;;;;5078664;28;20214;-75
2023/01/27 05:34:10;;;;;;;17.80;7.43;;;4.40;97.60;;;;;;5070819;28;20209;-74
2023/01/27 05:36:38;;;;;;;15.57;7.85;;;4.40;97.70;;;;;;5064993;28;20427;-75
2023/01/27 05:39:10;;;;;;;14.47;7.30;;;4.40;97.70;;;;;;5075086;28;20190;-74
2023/01/27 05:41:39;;;;;;;15.83;7.70;;;4.40;97.60;;;;;;5070330;28;20206;-74
2023/01/27 05:44:10;;;;;;;16.47;7.57;;;4.40;97.70;;;;;;5070958;28;20236;-73
2023/01/27 05:46:39;;;;;;;16.70;7.13;;;4.40;97.80;;;;;;5071965;28;20265;-74
2023/01/27 05:49:08;;;;;;;16.70;8.03;;;4.40;97.70;;;;;;5075388;28;20193;-74
2023/01/27 05:51:38;;;;;;;14.93;7.67;;;4.40;97.60;;;;;;5071828;28;20263;-73
2023/01/27 05:54:09;;;;;;;16.87;7.50;;;4.40;97.50;;;;;;5070803;28;20224;-76
2023/01/27 05:56:38;;;;;;;18.23;8.23;;;4.40;97.40;;;;;;5076219;28;20183;-74
2023/01/27 05:59:06;;;;;;;16.97;7.50;;;4.40;97.30;;;;;;5076082;28;20210;-74
2023/01/27 06:01:36;;;;;;;15.97;7.80;;;4.40;97.50;;;;;;5070641;28;20244;-73
2023/01/27 06:04:05;;;;;;;17.30;9.83;;;4.40;97.50;;;;;;5073737;28;20226;-74
2023/01/27 06:06:34;;;;;;;17.83;7.43;;;4.30;97.40;;;;;;5062692;28;20194;-75
2023/01/27 06:09:02;;;;;;;18.27;8.00;;;4.40;97.40;;;;;;5069412;28;20186;-74
2023/01/27 06:11:32;;;;;;;18.17;8.73;;;4.30;97.40;;;;;;5072088;28;20194;-72
2023/01/27 06:14:01;;;;;;;19.88;9.90;;;4.30;97.40;;;;;;5064617;28;20440;-73
2023/01/27 06:16:29;;;;;;;14.73;8.07;;;4.30;97.70;;;;;;5067328;28;20579;-76
2023/01/27 06:18:58;;;;;;;14.93;7.80;;;4.30;97.50;;;;;;5068061;28;20549;-74
2023/01/27 06:21:27;;;;;;;17.20;7.80;;;4.30;97.50;;;;;;5068554;28;20197;-74
2023/01/27 06:23:56;;;;;;;15.20;7.27;;;4.30;97.50;;;;;;5081198;28;21557;-74
2023/01/27 06:26:25;;;;;;;17.83;7.37;;;4.30;97.40;;;;;;5067503;28;20240;-73
2023/01/27 06:28:56;;;;;;;15.50;7.30;;;4.30;97.40;;;;;;5075487;28;20266;-74
2023/01/27 06:31:27;;;;;;;11.97;5.90;;;4.30;97.40;;;;;;5078187;28;20561;-75
2023/01/27 06:33:55;;;;;;;16.43;7.97;;;4.30;97.50;;;;;;5071103;28;20245;-75
2023/01/27 06:36:24;;;;;;;18.53;8.27;;;4.30;97.50;;;;;;5071388;28;20689;-79
2023/01/27 06:38:52;;;;;;;17.20;7.97;;;4.30;97.40;;;;;;5069195;28;20194;-75
2023/01/27 06:41:21;;;;;;;14.57;6.80;;;4.30;97.40;;;;;;5072905;28;20251;-75
2023/01/27 06:43:49;;;;;;;15.80;7.47;;;4.30;97.40;;;;;;5068012;28;20186;-72
2023/01/27 06:46:19;;;;;;;16.58;8.55;;;4.30;97.20;;;;;;5070263;28;20475;-75
2023/01/27 06:48:47;;;;;;;15.27;7.13;;;4.40;97.30;;;;;;5072392;28;20228;-75
2023/01/27 06:51:16;;;;;;;16.27;8.23;;;4.40;97.30;;;;;;5075726;28;20293;-78
2023/01/27 06:53:44;;;;;;;12.17;6.77;;;4.30;97.20;;;;;;5070459;28;20234;-75
2023/01/27 06:56:12;;;;;;;16.27;7.70;;;4.40;97.20;;;;;;5071939;28;20250;-76
2023/01/27 06:58:43;;;;;;;14.70;6.90;;;4.40;97.20;;;;;;5068057;28;20198;-77
2023/01/27 07:01:12;;;;;;;19.13;7.57;;;4.30;97.10;;;;;;5066979;28;20317;-76
2023/01/27 07:03:41;;;;;;;18.10;8.23;;;4.30;97.10;;;;;;5070641;28;20687;-76
2023/01/27 07:06:13;;;;;;;15.87;7.07;;;4.30;97.40;;;;;;5060557;28;20198;-77
2023/01/27 07:08:44;;;;;;;16.07;7.20;;;4.30;97.20;;;;;;5066360;28;20540;-75
2023/01/27 07:11:13;;;;;;;13.20;7.23;;;4.40;97.10;;;;;;5064539;28;20678;-75
2023/01/27 07:13:41;;;;;;;15.00;6.83;;;4.30;97.10;;;;;;5066915;28;20256;-76
2023/01/27 07:16:09;;;;;;;18.63;7.50;;;4.30;97.20;;;;;;5071072;28;20226;-77
2023/01/27 07:18:38;;;;;;;13.60;6.43;;;4.30;97.30;;;;;;5068257;28;20197;-74
2023/01/27 07:21:07;;;;;;;14.93;7.37;;;4.30;97.20;;;;;;5073098;28;20644;-73
2023/01/27 07:23:36;;;;;;;15.07;7.10;;;4.30;97.30;;;;;;5067604;28;20255;-75
2023/01/27 07:26:04;;;;;;;17.50;7.23;;;4.30;97.30;;;;;;5072154;28;20217;-74
2023/01/27 07:28:51;;;;;;;16.23;7.47;;;4.30;97.30;;;;;;5067141;28;20198;-74
2023/01/27 07:31:20;;;;;;;14.00;7.03;;;4.30;97.50;;;;;;5072575;28;20203;-73
2023/01/27 07:33:48;;;;;;;11.03;6.03;;;4.30;97.30;;;;;;5078209;28;20221;-74
2023/01/27 07:36:18;;;;;;;17.17;6.20;;;4.30;97.30;;;;;;5063266;28;20194;-74
2023/01/27 07:38:49;;;;;;;11.43;6.37;;;4.30;97.20;;;;;;5073578;28;20232;-74
2023/01/27 07:41:18;;;;;;;11.17;6.03;;;4.20;97.20;;;;;;5071074;28;20255;-75
2023/01/27 07:43:47;;;;;;;11.93;6.10;;;4.20;97.30;;;;;;5070413;28;20187;-76
2023/01/27 07:46:18;;;;;;;13.53;5.43;;;4.20;97.30;;;;;;5069751;28;20618;-74
2023/01/27 07:48:46;;;;;;;11.33;5.33;;;4.20;97.30;;;;;;5067348;28;20612;-75
2023/01/27 07:51:16;;;;;;;13.97;6.00;;;4.20;97.30;;;;;;5071094;28;20251;-74
2023/01/27 07:53:45;;;;;;;18.00;6.87;;;4.30;97.40;;;;;;5073030;28;20206;-75
2023/01/27 07:56:13;;;;;;;11.57;6.27;;;4.30;97.30;;;;;;5069349;28;20225;-75
2023/01/27 07:58:42;;;;;;;11.47;4.87;;;4.30;97.30;;;;;;5074214;28;20191;-74
2023/01/27 08:01:12;;;;;;;10.37;5.50;;;4.40;97.30;;;;;;5069245;28;20197;-74
2023/01/27 08:03:41;;;;;;;13.47;5.67;;;4.40;97.20;;;;;;5068298;28;20305;-75
2023/01/27 08:06:11;;;;;;;12.30;6.20;;;4.40;97.10;;;;;;5071864;28;20558;-74
2023/01/27 08:08:41;;;;;;;10.33;5.07;;;4.40;96.90;;;;;;5071651;28;20205;-73
2023/01/27 08:11:13;;;;;;;12.57;6.40;;;4.30;97.20;;;;;;5072480;28;20190;-73
2023/01/27 08:13:42;;;;;;;12.00;5.80;;;4.30;97.10;;;;;;5068855;28;20755;-73
2023/01/27 08:16:13;;;;;;;10.27;5.50;;;4.30;97.10;;;;;;5072615;28;20298;-75
2023/01/27 08:18:41;;;;;;;10.33;5.60;;;4.30;97.10;;;;;;5073340;28;20189;-74
2023/01/27 08:21:12;;;;;;;10.30;5.50;;;4.30;97.10;;;;;;5082155;28;20198;-76
2023/01/27 08:23:41;;;;;;;13.03;5.80;;;4.30;97.10;;;;;;5074608;28;20221;-73
2023/01/27 08:26:10;;;;;;;12.30;6.50;;;4.30;97.10;;;;;;5073222;28;20205;-73
2023/01/27 08:28:40;;;;;;;11.00;5.23;;;4.30;97.10;;;;;;5073710;28;20186;-73
2023/01/27 08:31:10;;;;;;;12.40;6.03;;;4.30;97.20;;;;;;5074589;28;20224;-75
2023/01/27 08:33:39;;;;;;;11.90;6.00;;;4.30;97.30;;;;;;5069821;28;20259;-74
2023/01/27 08:36:10;;;;;;;12.73;5.77;;;4.30;97.30;;;;;;5076751;28;20198;-75
2023/01/27 08:38:39;;;;;;;11.77;5.60;;;4.30;97.30;;;;;;5069967;28;20541;-74
2023/01/27 08:41:11;;;;;;;12.30;5.83;;;4.30;97.30;;;;;;5073252;28;20190;-74
2023/01/27 08:43:39;;;;;;;10.53;5.90;;;4.40;97.40;;;;;;5069372;28;20244;-75
2023/01/27 08:46:09;;;;;;;9.67;5.50;;;4.40;97.50;;;;;;5077295;28;20198;-72
2023/01/27 08:48:38;;;;;;;12.67;6.33;;;4.40;97.40;;;;;;5068164;28;20273;-75
2023/01/27 08:51:09;;;;;;;11.40;5.53;;;4.40;97.30;;;;;;5072082;28;20206;-74
2023/01/27 08:53:37;;;;;;;11.13;6.10;;;4.40;97.20;;;;;;5078531;28;20697;-73
2023/01/27 08:56:08;;;;;;;9.60;5.83;;;4.40;97.30;;;;;;5085092;28;20712;-73
2023/01/27 08:58:37;;;;;;;11.97;5.53;;;4.40;97.40;;;;;;5067202;28;20210;-74
2023/01/27 09:01:07;;;;;;;10.93;5.07;;;4.40;97.40;;;;;;5070026;28;20198;-72
2023/01/27 09:03:36;;;;;;;12.50;6.03;;;4.50;97.50;;;;;;5076135;28;20233;-73
2023/01/27 09:06:05;;;;;;;12.00;5.40;;;4.50;97.50;;;;;;5080661;28;20186;-73
2023/01/27 09:08:34;;;;;;;9.53;5.07;;;4.50;97.40;;;;;;5071346;28;20198;-74
2023/01/27 09:11:09;;;;;;;9.07;4.93;;;4.50;97.50;;;;;;5072635;28;20547;-74
2023/01/27 09:13:39;;;;;;;9.03;4.90;;;4.50;97.40;;;;;;5071204;28;20209;-74
2023/01/27 09:16:08;;;;;;;9.60;4.60;;;4.50;97.40;;;;;;5073030;28;20252;-75
2023/01/27 09:18:36;;;;;;;12.17;5.40;;;4.50;97.40;;;;;;5067804;28;20237;-75
2023/01/27 09:21:06;;;;;;;9.77;5.13;;;4.50;97.40;;;;;;5070886;28;20436;-75
2023/01/27 09:23:35;;;;;;;8.13;4.80;;;4.50;97.30;;;;;;5076784;28;20194;-73
2023/01/27 09:26:03;;;;;;;9.97;5.43;;;4.50;97.50;;;;;;5073862;28;20190;-73
2023/01/27 09:28:31;;;;;;;10.37;5.50;;;4.50;97.50;;;;;;5070758;28;20732;-73
2023/01/27 09:31:01;;;;;;;11.00;5.10;;;4.60;97.50;;;;;;5068539;28;20194;-73
2023/01/27 09:33:30;;;;;;;9.87;5.60;;;4.50;97.40;;;;;;5072417;28;20221;-72
2023/01/27 09:36:05;;;;;;;10.60;5.63;;;4.50;97.30;;;;;;5072445;28;20604;-72
2023/01/27 09:38:37;;;;;;;9.17;5.20;;;4.50;97.40;;;;;;5072823;28;20247;-74
2023/01/27 09:41:28;;;;;;;10.20;5.00;;;4.50;97.40;;;;;;5068229;28;20190;-76
2023/01/27 09:44:22;;;;;;;9.23;5.13;;;4.40;97.50;;;;;;5066770;28;20191;-74
2023/01/27 09:47:14;;;;;;;10.23;5.30;;;4.50;97.60;;;;;;5072355;28;20190;-74
2023/01/27 09:50:10;;;;;;;10.43;5.20;;;4.50;97.50;;;;;;5073891;28;20240;-76
2023/01/27 09:52:57;;;;;;;9.27;4.70;;;4.50;97.30;;;;;;5079795;28;20191;-73
2023/01/27 09:55:32;;;;;;;10.47;5.47;;;4.50;97.20;;;;;;5061198;28;20210;-75
2023/01/27 09:58:11;;;;;;;8.77;4.77;;;4.60;97.40;;;;;;5060701;28;20196;-76
2023/01/27 10:00:52;;;;;;;9.87;4.93;;;4.50;97.50;;;;;;5065719;28;20195;-73
2023/01/27 10:03:43;;;;;;;8.97;4.33;;;4.50;97.50;;;;;;5068729;28;20732;-76
2023/01/27 10:06:35;;;;;;;11.20;5.72;;;4.60;97.40;;;;;;5072764;28;20430;-76
2023/01/27 10:09:34;;;;;;;9.93;4.73;;;4.60;97.40;;;;;;5072354;28;20197;-74
2023/01/27 10:12:13;;;;;;;8.80;4.50;;;4.50;97.20;;;;;;5062135;28;20294;-75
2023/01/27 10:14:52;;;;;;;7.30;4.20;;;4.60;97.30;;;;;;5065674;28;20620;-74
2023/01/27 10:17:33;;;;;;;8.77;4.50;;;4.60;97.30;;;;;;5075737;28;20185;-75
2023/01/27 10:20:24;;;;;;;7.93;4.80;;;4.60;97.40;;;;;;5068372;28;20590;-75
2023/01/27 10:23:09;;;;;;;9.27;4.13;;;4.60;97.40;;;;;;5072133;28;20190;-75
2023/01/27 10:25:57;;;;;;;7.63;4.40;;;4.50;97.40;;;;;;5069304;28;20248;-74
2023/01/27 10:28:29;;;;;;;8.60;4.17;;;4.50;97.60;;;;;;5064458;28;20655;-73
2023/01/27 10:31:00;;;;;;;8.90;4.93;;;4.50;97.60;;;;;;5071025;28;20198;-73
2023/01/27 10:33:46;;;;;;;8.17;4.10;;;4.40;97.70;;;;;;5070331;28;20182;-73
2023/01/27 10:36:27;;;;;;;8.33;4.57;;;4.40;97.60;;;;;;5073041;28;20833;-74
2023/01/27 10:39:08;;;;;;;12.13;4.77;;;4.40;97.60;;;;;;5072549;28;20205;-73
2023/01/27 10:41:44;;;;;;;7.33;4.17;;;4.40;97.80;;;;;;5076003;28;20186;-73
2023/01/27 10:44:31;;;;;;;7.83;4.40;;;4.40;97.80;;;;;;5065289;28;20244;-72
2023/01/27 10:47:09;;;;;;;10.18;5.55;;;4.40;97.80;;;;;;5067922;28;20439;-72
2023/01/27 10:49:41;;;;;;;8.50;4.30;;;4.40;97.90;;;;;;5067759;28;20611;-74
2023/01/27 10:52:16;;;;;;;8.13;4.43;;;4.40;97.90;;;;;;5070467;28;20268;-75
2023/01/27 10:54:52;;;;;;;10.30;5.03;;;4.40;97.90;;;;;;5071197;28;20237;-73
2023/01/27 10:57:30;;;;;;;9.53;4.43;;;4.40;97.90;;;;;;5058650;28;20198;-75
2023/01/27 11:00:05;;;;;;;9.30;4.50;;;4.40;97.90;;;;;;5061295;28;20263;-74
2023/01/27 11:03:02;;;;;;;10.33;5.03;;;4.40;97.90;;;;;;5069236;28;20321;-74
2023/01/27 11:05:36;;;;;;;9.83;4.80;;;4.40;98.00;;;;;;5074092;28;20190;-74
2023/01/27 11:08:12;;;;;;;8.97;4.67;;;4.40;98.10;;;;;;5080447;28;20181;-72
2023/01/27 11:11:42;;;;;;;8.97;4.37;;;4.50;98.00;;;;;;5074647;28;20190;-74
2023/01/27 11:13:33;;;;;;;8.53;4.57;;;4.50;98.10;;;;;;5066849;28;20198;-74
2023/01/27 11:16:03;;;;;;;8.67;4.20;;;4.50;98.10;;;;;;5070685;28;20218;-74
2023/01/27 11:18:36;;;;;;;9.10;4.10;;;4.50;98.10;;;;;;5071098;28;20194;-74
2023/01/27 11:21:09;;;;;;;11.60;4.77;;;4.50;98.10;;;;;;5070282;28;20190;-76
2023/01/27 11:23:44;;;;;;;8.83;4.07;;;4.50;98.10;;;;;;5063618;28;20651;-74
2023/01/27 11:26:26;;;;;;;9.43;4.67;;;4.50;98.10;;;;;;5076678;28;20656;-73
2023/01/27 11:29:02;;;;;;;9.10;4.47;;;4.50;98.20;;;;;;5061759;28;20225;-74
2023/01/27 11:31:37;;;;;;;8.33;4.53;;;4.60;98.10;;;;;;5068496;28;20206;-74
2023/01/27 11:34:10;;;;;;;7.83;3.93;;;4.60;98.10;;;;;;5071641;28;20792;-74
2023/01/27 11:36:38;;;;;;;8.93;3.93;;;4.60;98.10;;;;;;5074964;28;20218;-74
2023/01/27 11:39:11;;;;;;;8.27;4.20;;;4.60;98.00;;;;;;5069508;28;20187;-74
2023/01/27 11:41:43;;;;;;;9.97;4.83;;;4.50;97.90;;;;;;5071274;28;20721;-74
2023/01/27 11:44:21;;;;;;;8.20;3.73;;;4.50;97.90;;;;;;5071246;28;20249;-76
2023/01/27 11:46:50;;;;;;;7.80;3.77;;;4.60;98.00;;;;;;5074288;28;20563;-74
2023/01/27 11:49:23;;;;;;;5.87;3.80;;;4.50;98.00;;;;;;5071617;28;20243;-74
2023/01/27 11:52:04;;;;;;;8.63;3.37;;;4.50;98.10;;;;;;5065758;28;20273;-76
2023/01/27 11:54:40;;;;;;;8.17;3.37;;;4.50;98.00;;;;;;5065473;28;20192;-73
2023/01/27 11:57:19;;;;;;;7.83;4.13;;;4.60;98.00;;;;;;5072793;28;20248;-74
2023/01/27 11:59:50;;;;;;;7.87;3.47;;;4.50;97.90;;;;;;5075697;28;20182;-75
2023/01/27 12:02:27;;;;;;;7.53;3.67;;;4.50;97.90;;;;;;5073631;28;20615;-73
2023/01/27 12:05:03;;;;;;;6.57;3.23;;;4.50;98.00;;;;;;5065370;28;20186;-75
2023/01/27 12:07:44;;;;;;;7.83;3.80;;;4.50;98.20;;;;;;5068458;28;20201;-73
2023/01/27 12:10:30;;;;;;;6.07;3.50;;;4.50;98.10;;;;;;5074733;28;20239;-72
2023/01/27 12:13:07;;;;;;;7.13;3.63;;;4.50;98.10;;;;;;5068480;28;20244;-72
2023/01/27 12:15:37;;;;;;;8.17;3.23;;;4.50;98.20;;;;;;5029573;28;20245;-74
2023/01/27 12:18:14;;;;;;;9.63;4.33;;;4.50;98.40;;;;;;5067100;28;20282;-73
2023/01/27 12:20:44;;;;;;;7.80;3.73;;;4.50;98.20;;;;;;5074402;28;20857;-76
2023/01/27 12:23:22;;;;;;;8.43;3.63;;;4.50;98.20;;;;;;5071873;28;20213;-73
2023/01/27 12:25:55;;;;;;;7.93;3.80;;;4.40;98.00;;;;;;5064824;28;20190;-73
2023/01/27 12:28:32;;;;;;;8.70;4.22;;;4.40;98.10;;;;;;5065294;28;20428;-75
2023/01/27 12:31:07;;;;;;;6.80;3.90;;;4.50;98.30;;;;;;5068351;28;20213;-75
2023/01/27 12:33:38;;;;;;;8.13;3.53;;;4.50;98.20;;;;;;5065046;28;20189;-74
2023/01/27 12:36:14;;;;;;;9.43;4.33;;;4.50;97.90;;;;;;5067978;28;20229;-75
2023/01/27 12:38:51;;;;;;;7.20;3.93;;;4.50;97.90;;;;;;5071584;28;20193;-73
2023/01/27 12:41:27;;;;;;;6.93;3.73;;;4.50;97.90;;;;;;5076169;28;20243;-73
2023/01/27 12:43:59;;;;;;;10.43;3.87;;;4.50;98.00;;;;;;5067062;28;20510;-76
2023/01/27 12:46:28;;;;;;;7.60;3.90;;;4.50;97.90;;;;;;5068245;28;20195;-77
2023/01/27 12:49:07;;;;;;;8.80;4.00;;;4.50;97.90;;;;;;5072138;28;20187;-73
2023/01/27 12:51:40;;;;;;;7.90;4.00;;;4.50;98.00;;;;;;5070649;28;20243;-74
2023/01/27 12:54:16;;;;;;;8.67;4.50;;;4.60;98.00;;;;;;5069382;28;20196;-74
2023/01/27 12:56:46;;;;;;;8.93;4.83;;;4.50;97.90;;;;;;5069555;28;20210;-73
2023/01/27 12:59:16;;;;;;;9.23;4.77;;;4.60;98.00;;;;;;5074481;28;20206;-73
2023/01/27 13:01:57;;;;;;;8.83;4.50;;;4.60;97.90;;;;;;5072990;28;20198;-74
2023/01/27 13:04:27;;;;;;;9.33;4.23;;;4.60;97.90;;;;;;5071886;28;20212;-72
2023/01/27 13:07:03;;;;;;;8.30;4.40;;;4.60;97.90;;;;;;5074487;28;20198;-73
2023/01/27 13:09:35;;;;;;;9.20;4.68;;;4.60;97.80;;;;;;5074087;28;20439;-73
2023/01/27 13:12:15;;;;;;;8.97;4.50;;;4.60;97.80;;;;;;5079262;28;20183;-73
2023/01/27 13:14:44;;;;;;;7.07;4.10;;;4.60;97.90;;;;;;5074098;28;20342;-74
2023/01/27 13:17:30;;;;;;;9.20;4.17;;;4.60;97.80;;;;;;5071469;28;20264;-73
2023/01/27 13:20:06;;;;;;;9.70;4.70;;;4.50;97.70;;;;;;5074238;28;20194;-73
2023/01/27 13:22:43;;;;;;;9.40;5.10;;;4.60;97.90;;;;;;5070273;28;20954;-75
2023/01/27 13:25:18;;;;;;;7.73;3.93;;;4.50;97.90;;;;;;5072150;28;20213;-74
2023/01/27 13:27:53;;;;;;;10.77;4.97;;;4.50;97.70;;;;;;5074296;28;20194;-74
2023/01/27 13:30:28;;;;;;;9.83;3.77;;;4.50;97.60;;;;;;5077712;28;20186;-74
2023/01/27 13:33:02;;;;;;;10.20;5.20;;;4.50;97.70;;;;;;5071757;28;20186;-74
2023/01/27 13:35:37;;;;;;;7.17;3.93;;;4.60;97.80;;;;;;5076203;28;20191;-73
2023/01/27 13:38:15;;;;;;;8.80;4.67;;;4.50;97.70;;;;;;5073717;28;20203;-76
2023/01/27 13:40:45;;;;;;;9.33;4.70;;;4.50;97.70;;;;;;5066978;28;20590;-73
2023/01/27 13:43:22;;;;;;;8.27;4.40;;;4.50;97.80;;;;;;5073140;28;21060;-74
2023/01/27 13:45:55;;;;;;;8.07;5.17;;;4.50;97.70;;;;;;5081953;28;20187;-74